Freedom — WDD5825 — position and weather

sailwx.info

Track history (hours):
 
Tides and Currents Weather Stations Pressure Air Temp Water Temp Dewpoint Dewpoint Depression Visibility Wind Speed Wind Dir Waves Ship Positions

Freedom

Owner: REINAUER TRANSPORTATION CO.,LLC., STATEN ISLAND, NY. More information available from US FCC via Universal Licensing System and Coast Guard Vessel Documentation Center.

Last reported at 2018-Mar-19 06:44 UTC. Time now 2018-Apr-25 06:58 UTC.
Position N 41°35' W 071°25'.
Warning: this ship's position is 37 days out of date.

Length 28 m; draft 4.3 m.

Type: Tug. MMSI: 367164250.

Date/timePositionNaut miles runAvg speedWind from/ knotsBaromVisibWave heightAir tempDewpointWater temp
2018-Mar-19 06:44N 41°35' W 071°25'0 0.0
2018-Mar-19 06:25N 41°35' W 071°25'0 0.0
2018-Mar-19 05:54N 41°35' W 071°25'0 0.0
2018-Mar-19 05:27N 41°35' W 071°25'0 0.0
2018-Mar-19 04:38N 41°35' W 071°25'0 0.0
2018-Mar-19 04:26N 41°35' W 071°25'0 0.0
2018-Mar-19 04:00N 41°35' W 071°25'0 0.0
2018-Mar-19 03:27N 41°35' W 071°25'0 0.2
2018-Mar-19 02:58N 41°35' W 071°24'51 5.1
2018-Mar-18 17:06N 42°18' W 070°49'310.5
2018-Mar-18 16:49N 42°19' W 070°53'3 9.7
2018-Mar-18 16:30N 42°20' W 070°57'5 9.2
2018-Mar-18 16:00N 42°22' W 071°02'1 2.5
2018-Mar-18 15:30N 42°23' W 071°03'0 0.0
2018-Mar-18 15:00N 42°23' W 071°03'  
2018-Mar-13 00:24N 42°23' W 071°03'1 1.4
2018-Mar-13 00:01N 42°23' W 071°03'0 0.6
2018-Mar-12 23:30N 42°23' W 071°03'1 2.7
2018-Mar-12 23:00N 42°24' W 071°01'0 1.0
2018-Mar-12 22:30N 42°23' W 071°01'1 3.0
2018-Mar-12 22:01N 42°22' W 071°03'1 1.1
2018-Mar-12 21:30N 42°23' W 071°03'0 0.0
2018-Mar-12 12:24N 42°23' W 071°03'0 0.0
2018-Mar-12 12:01N 42°23' W 071°03'0 0.0
2018-Mar-12 11:30N 42°23' W 071°03'1 2.5
2018-Mar-12 11:00N 42°23' W 071°01'0 0.9
2018-Mar-12 10:30N 42°24' W 071°01'2 3.8
2018-Mar-12 10:00N 42°23' W 071°03'0 0.3
2018-Mar-12 09:30N 42°23' W 071°03'1 2.7
2018-Mar-12 09:00N 42°22' W 071°03'1 1.9
2018-Mar-12 08:31N 42°23' W 071°03'0 0.0
2018-Mar-12 03:03N 42°23' W 071°03'0 0.2
2018-Mar-12 03:00N 42°23' W 071°03'1 1.6
2018-Mar-12 02:30N 42°23' W 071°02'0 0.1
2018-Mar-12 02:00N 42°23' W 071°01'1 1.7
2018-Mar-12 01:30N 42°24' W 071°01'0 0.1
2018-Mar-12 01:00N 42°24' W 071°01'1 2.3
2018-Mar-12 00:30N 42°23' W 071°02'1 1.3
2018-Mar-12 00:00N 42°23' W 071°03'0 0.9
2018-Mar-11 23:30N 42°23' W 071°03'2 4.7
2018-Mar-11 23:00N 42°21' W 071°01'1 2.0
2018-Mar-11 22:30N 42°21' W 071°02'1 2.9
2018-Mar-11 22:00N 42°23' W 071°03'0 0.0
2018-Mar-11 21:30N 42°23' W 071°03'0 0.0
2018-Mar-11 21:00N 42°23' W 071°03'0 0.0
2018-Mar-11 20:30N 42°23' W 071°03'0 0.0
2018-Mar-11 20:00N 42°23' W 071°03'0 0.0
2018-Mar-11 19:30N 42°23' W 071°03'0 0.0
2018-Mar-11 19:00N 42°23' W 071°03'0 0.0
2018-Mar-11 18:30N 42°23' W 071°03'0 0.0
2018-Mar-11 18:00N 42°23' W 071°03'0 0.0
2018-Mar-11 17:30N 42°23' W 071°03'0 0.0
2018-Mar-11 17:00N 42°23' W 071°03'0 0.0
2018-Mar-11 16:30N 42°23' W 071°03'0 0.0
2018-Mar-11 16:00N 42°23' W 071°03'0 0.0
2018-Mar-11 15:30N 42°23' W 071°03'0 0.0
2018-Mar-11 15:00N 42°23' W 071°03'0 0.9
2018-Mar-11 14:31N 42°23' W 071°02'1 1.7
2018-Mar-11 13:59N 42°24' W 071°01'1 2.9
2018-Mar-11 13:30N 42°23' W 071°03'1 3.0
2018-Mar-11 13:00N 42°24' W 071°01'0 0.4
2018-Mar-11 12:30N 42°24' W 071°01'2 4.9
2018-Mar-11 12:00N 42°22' W 071°03'2 3.6
2018-Mar-11 11:30N 42°21' W 071°01'2 3.9
2018-Mar-11 11:00N 42°20' W 070°59'2 4.0
2018-Mar-11 10:30N 42°21' W 071°01'3 5.7
2018-Mar-11 10:00N 42°23' W 071°03'0 0.6
2018-Mar-11 09:30N 42°23' W 071°03'2 4.5
2018-Mar-11 09:00N 42°21' W 071°02'2 3.8
2018-Mar-11 08:30N 42°23' W 071°03'0 0.0
2018-Mar-11 08:00N 42°23' W 071°03'0 0.0
2018-Mar-11 07:31N 42°23' W 071°03'0 0.0
2018-Mar-11 07:00N 42°23' W 071°03'0 0.0
2018-Mar-11 06:30N 42°23' W 071°03'0 0.0
2018-Mar-11 06:00N 42°23' W 071°03'0 0.0
2018-Mar-11 05:30N 42°23' W 071°03'0 0.0
2018-Mar-11 05:00N 42°23' W 071°03'0 0.0
2018-Mar-11 04:30N 42°23' W 071°03'0 0.0
2018-Mar-11 04:00N 42°23' W 071°03'0 0.0
2018-Mar-11 03:30N 42°23' W 071°03'0 0.0
2018-Mar-11 03:00N 42°23' W 071°03'1 2.1
2018-Mar-11 02:31N 42°23' W 071°01'0 0.7
2018-Mar-11 02:00N 42°24' W 071°01'1 1.7
2018-Mar-11 01:30N 42°23' W 071°02'1 2.1
2018-Mar-11 01:00N 42°22' W 071°03'1 1.5
2018-Mar-11 00:30N 42°23' W 071°03'1 1.7
2018-Mar-10 23:59N 42°23' W 071°01'0 0.4
2018-Mar-10 23:30N 42°23' W 071°02'1 1.3
2018-Mar-10 23:00N 42°23' W 071°03'0 0.0
2018-Mar-10 22:30N 42°23' W 071°03'0 0.0
2018-Mar-10 22:00N 42°23' W 071°03'0 0.0
2018-Mar-10 21:30N 42°23' W 071°03'0 0.0
2018-Mar-10 21:01N 42°23' W 071°03'0 0.1
2018-Mar-10 20:30N 42°23' W 071°03'1 2.6
2018-Mar-10 20:00N 42°22' W 071°02'4 6.7
2018-Mar-10 19:29N 42°20' W 070°58'0 0.2
2018-Mar-10 19:00N 42°20' W 070°58'0 0.0
2018-Mar-10 18:30N 42°20' W 070°58'0 0.1
2018-Mar-10 18:00N 42°20' W 070°58'0 0.0
2018-Mar-10 17:30N 42°20' W 070°58'0 0.0
2018-Mar-10 17:00N 42°20' W 070°58'0 0.1
2018-Mar-10 16:30N 42°20' W 070°58'0 0.0
2018-Mar-10 16:00N 42°20' W 070°58'0 0.0
2018-Mar-10 15:30N 42°20' W 070°58'0 0.1
2018-Mar-10 15:00N 42°20' W 070°58'0 0.0
2018-Mar-10 14:30N 42°20' W 070°58'0 0.0
2018-Mar-10 14:00N 42°20' W 070°58'2 3.6
2018-Mar-10 13:30N 42°20' W 071°00'3 6.6
2018-Mar-10 13:00N 42°23' W 071°03'0 0.6
2018-Mar-10 12:31N 42°23' W 071°03'0 0.0
2018-Mar-10 12:00N 42°23' W 071°03'0 0.0
2018-Mar-10 11:30N 42°23' W 071°03'0 0.0
2018-Mar-10 11:00N 42°23' W 071°03'0 0.0
2018-Mar-10 10:30N 42°23' W 071°03'0 0.0
2018-Mar-10 10:00N 42°23' W 071°03'0 0.0
2018-Mar-10 09:30N 42°23' W 071°03'0 0.0
2018-Mar-10 09:00N 42°23' W 071°03'0 0.0
2018-Mar-10 08:30N 42°23' W 071°03'0 0.0
2018-Mar-10 08:00N 42°23' W 071°03'0 0.0
2018-Mar-10 07:30N 42°23' W 071°03'0 0.0
2018-Mar-10 07:00N 42°23' W 071°03'0 0.0
2018-Mar-10 06:30N 42°23' W 071°03'0 0.0
2018-Mar-10 06:00N 42°23' W 071°03'0 0.0
2018-Mar-10 05:30N 42°23' W 071°03'0 0.0
2018-Mar-10 05:00N 42°23' W 071°03'0 0.0
2018-Mar-10 04:30N 42°23' W 071°03'0 0.0
2018-Mar-10 04:00N 42°23' W 071°03'0 0.0
2018-Mar-10 03:30N 42°23' W 071°03'0 0.0
2018-Mar-10 03:00N 42°23' W 071°03'0 0.0
2018-Mar-10 02:30N 42°23' W 071°03'0 0.0
2018-Mar-10 02:00N 42°23' W 071°03'0 0.0
2018-Mar-10 01:30N 42°23' W 071°03'0 0.0
2018-Mar-10 01:00N 42°23' W 071°03'0 0.0
2018-Mar-10 00:30N 42°23' W 071°03'0 0.0
2018-Mar-10 00:00N 42°23' W 071°03'0 0.0
2018-Mar-09 23:31N 42°23' W 071°03'0 0.0
2018-Mar-09 23:00N 42°23' W 071°03'0 0.0
2018-Mar-09 22:30N 42°23' W 071°03'0 0.0
2018-Mar-09 22:00N 42°23' W 071°03'0 0.0
2018-Mar-09 21:30N 42°23' W 071°03'1 1.9
2018-Mar-09 21:00N 42°23' W 071°04'0 0.0
2018-Mar-09 20:30N 42°23' W 071°04'0 0.8
2018-Mar-09 20:00N 42°23' W 071°03'1 1.7
2018-Mar-09 19:30N 42°22' W 071°03'3 6.3
2018-Mar-09 19:01N 42°20' W 070°60'2 3.3
2018-Mar-09 18:30N 42°20' W 070°58'3 6.1
2018-Mar-09 18:00N 42°21' W 071°02'2 3.7
2018-Mar-09 17:31N 42°23' W 071°03'1 1.8
2018-Mar-09 17:00N 42°23' W 071°02'1 1.6
2018-Mar-09 16:30N 42°24' W 071°01'1 2.0
2018-Mar-09 16:00N 42°23' W 071°02'1 1.5
2018-Mar-09 15:30N 42°23' W 071°03'1 1.7
2018-Mar-09 15:01N 42°23' W 071°02'1 1.4
2018-Mar-09 14:30N 42°24' W 071°01'1 2.9
2018-Mar-09 14:00N 42°23' W 071°03'0 0.9
2018-Mar-09 13:30N 42°23' W 071°04'1 1.5
2018-Mar-09 13:01N 42°23' W 071°03'2 3.2
2018-Mar-09 12:30N 42°21' W 071°02'2 3.1
2018-Mar-09 12:00N 42°23' W 071°03'0 0.0
2018-Mar-09 11:30N 42°23' W 071°03'1 2.7
2018-Mar-09 11:00N 42°24' W 071°01'0 0.2
2018-Mar-09 10:30N 42°24' W 071°01'0 0.6
2018-Mar-09 10:00N 42°24' W 071°01'2 3.4
2018-Mar-09 09:31N 42°23' W 071°03'0 0.0
2018-Mar-09 09:00N 42°23' W 071°03'0 0.0
2018-Mar-09 08:30N 42°23' W 071°03'0 0.0
2018-Mar-09 08:00N 42°23' W 071°03'0 0.0
2018-Mar-09 07:30N 42°23' W 071°03'0 0.0
2018-Mar-09 07:00N 42°23' W 071°03'  
Track history (hours):
 
Tides and Currents Weather Stations Pressure Air Temp Water Temp Dewpoint Dewpoint Depression Visibility Wind Speed Wind Dir Waves Ship Positions

Freedom

Owner: REINAUER TRANSPORTATION CO.,LLC., STATEN ISLAND, NY. More information available from US FCC via Universal Licensing System and Coast Guard Vessel Documentation Center.

Last reported at 2018-Mar-19 06:44 UTC. Time now 2018-Apr-25 06:58 UTC.
Position N 41°35' W 071°25'.
Warning: this ship's position is 37 days out of date.

Length 28 m; draft 4.3 m.

Type: Tug. MMSI: 367164250.

Date/timePositionNaut miles runAvg speedWind from/ knotsBaromVisibWave heightAir tempDewpointWater temp
2018-Mar-19 06:44N 41°35' W 071°25'0 0.0
2018-Mar-19 06:25N 41°35' W 071°25'0 0.0
2018-Mar-19 05:54N 41°35' W 071°25'0 0.0
2018-Mar-19 05:27N 41°35' W 071°25'0 0.0
2018-Mar-19 04:38N 41°35' W 071°25'0 0.0
2018-Mar-19 04:26N 41°35' W 071°25'0 0.0
2018-Mar-19 04:00N 41°35' W 071°25'0 0.0
2018-Mar-19 03:27N 41°35' W 071°25'0 0.2
2018-Mar-19 02:58N 41°35' W 071°24'51 5.1
2018-Mar-18 17:06N 42°18' W 070°49'310.5
2018-Mar-18 16:49N 42°19' W 070°53'3 9.7
2018-Mar-18 16:30N 42°20' W 070°57'5 9.2
2018-Mar-18 16:00N 42°22' W 071°02'1 2.5
2018-Mar-18 15:30N 42°23' W 071°03'0 0.0
2018-Mar-18 15:00N 42°23' W 071°03'  
2018-Mar-13 00:24N 42°23' W 071°03'1 1.4
2018-Mar-13 00:01N 42°23' W 071°03'0 0.6
2018-Mar-12 23:30N 42°23' W 071°03'1 2.7
2018-Mar-12 23:00N 42°24' W 071°01'0 1.0
2018-Mar-12 22:30N 42°23' W 071°01'1 3.0
2018-Mar-12 22:01N 42°22' W 071°03'1 1.1
2018-Mar-12 21:30N 42°23' W 071°03'0 0.0
2018-Mar-12 12:24N 42°23' W 071°03'0 0.0
2018-Mar-12 12:01N 42°23' W 071°03'0 0.0
2018-Mar-12 11:30N 42°23' W 071°03'1 2.5
2018-Mar-12 11:00N 42°23' W 071°01'0 0.9
2018-Mar-12 10:30N 42°24' W 071°01'2 3.8
2018-Mar-12 10:00N 42°23' W 071°03'0 0.3
2018-Mar-12 09:30N 42°23' W 071°03'1 2.7
2018-Mar-12 09:00N 42°22' W 071°03'1 1.9
2018-Mar-12 08:31N 42°23' W 071°03'0 0.0
2018-Mar-12 03:03N 42°23' W 071°03'0 0.2
2018-Mar-12 03:00N 42°23' W 071°03'1 1.6
2018-Mar-12 02:30N 42°23' W 071°02'0 0.1
2018-Mar-12 02:00N 42°23' W 071°01'1 1.7
2018-Mar-12 01:30N 42°24' W 071°01'0 0.1
2018-Mar-12 01:00N 42°24' W 071°01'1 2.3
2018-Mar-12 00:30N 42°23' W 071°02'1 1.3
2018-Mar-12 00:00N 42°23' W 071°03'0 0.9
2018-Mar-11 23:30N 42°23' W 071°03'2 4.7
2018-Mar-11 23:00N 42°21' W 071°01'1 2.0
2018-Mar-11 22:30N 42°21' W 071°02'1 2.9
2018-Mar-11 22:00N 42°23' W 071°03'0 0.0
2018-Mar-11 21:30N 42°23' W 071°03'0 0.0
2018-Mar-11 21:00N 42°23' W 071°03'0 0.0
2018-Mar-11 20:30N 42°23' W 071°03'0 0.0
2018-Mar-11 20:00N 42°23' W 071°03'0 0.0
2018-Mar-11 19:30N 42°23' W 071°03'0 0.0
2018-Mar-11 19:00N 42°23' W 071°03'0 0.0
2018-Mar-11 18:30N 42°23' W 071°03'0 0.0
2018-Mar-11 18:00N 42°23' W 071°03'0 0.0
2018-Mar-11 17:30N 42°23' W 071°03'0 0.0
2018-Mar-11 17:00N 42°23' W 071°03'0 0.0
2018-Mar-11 16:30N 42°23' W 071°03'0 0.0
2018-Mar-11 16:00N 42°23' W 071°03'0 0.0
2018-Mar-11 15:30N 42°23' W 071°03'0 0.0
2018-Mar-11 15:00N 42°23' W 071°03'0 0.9
2018-Mar-11 14:31N 42°23' W 071°02'1 1.7
2018-Mar-11 13:59N 42°24' W 071°01'1 2.9
2018-Mar-11 13:30N 42°23' W 071°03'1 3.0
2018-Mar-11 13:00N 42°24' W 071°01'0 0.4
2018-Mar-11 12:30N 42°24' W 071°01'2 4.9
2018-Mar-11 12:00N 42°22' W 071°03'2 3.6
2018-Mar-11 11:30N 42°21' W 071°01'2 3.9
2018-Mar-11 11:00N 42°20' W 070°59'2 4.0
2018-Mar-11 10:30N 42°21' W 071°01'3 5.7
2018-Mar-11 10:00N 42°23' W 071°03'0 0.6
2018-Mar-11 09:30N 42°23' W 071°03'2 4.5
2018-Mar-11 09:00N 42°21' W 071°02'2 3.8
2018-Mar-11 08:30N 42°23' W 071°03'0 0.0
2018-Mar-11 08:00N 42°23' W 071°03'0 0.0
2018-Mar-11 07:31N 42°23' W 071°03'0 0.0
2018-Mar-11 07:00N 42°23' W 071°03'0 0.0
2018-Mar-11 06:30N 42°23' W 071°03'0 0.0
2018-Mar-11 06:00N 42°23' W 071°03'0 0.0
2018-Mar-11 05:30N 42°23' W 071°03'0 0.0
2018-Mar-11 05:00N 42°23' W 071°03'0 0.0
2018-Mar-11 04:30N 42°23' W 071°03'0 0.0
2018-Mar-11 04:00N 42°23' W 071°03'0 0.0
2018-Mar-11 03:30N 42°23' W 071°03'0 0.0
2018-Mar-11 03:00N 42°23' W 071°03'1 2.1
2018-Mar-11 02:31N 42°23' W 071°01'0 0.7
2018-Mar-11 02:00N 42°24' W 071°01'1 1.7
2018-Mar-11 01:30N 42°23' W 071°02'1 2.1
2018-Mar-11 01:00N 42°22' W 071°03'1 1.5
2018-Mar-11 00:30N 42°23' W 071°03'1 1.7
2018-Mar-10 23:59N 42°23' W 071°01'0 0.4
2018-Mar-10 23:30N 42°23' W 071°02'1 1.3
2018-Mar-10 23:00N 42°23' W 071°03'0 0.0
2018-Mar-10 22:30N 42°23' W 071°03'0 0.0
2018-Mar-10 22:00N 42°23' W 071°03'0 0.0
2018-Mar-10 21:30N 42°23' W 071°03'0 0.0
2018-Mar-10 21:01N 42°23' W 071°03'0 0.1
2018-Mar-10 20:30N 42°23' W 071°03'1 2.6
2018-Mar-10 20:00N 42°22' W 071°02'4 6.7
2018-Mar-10 19:29N 42°20' W 070°58'0 0.2
2018-Mar-10 19:00N 42°20' W 070°58'0 0.0
2018-Mar-10 18:30N 42°20' W 070°58'0 0.1
2018-Mar-10 18:00N 42°20' W 070°58'0 0.0
2018-Mar-10 17:30N 42°20' W 070°58'0 0.0
2018-Mar-10 17:00N 42°20' W 070°58'0 0.1
2018-Mar-10 16:30N 42°20' W 070°58'0 0.0
2018-Mar-10 16:00N 42°20' W 070°58'0 0.0
2018-Mar-10 15:30N 42°20' W 070°58'0 0.1
2018-Mar-10 15:00N 42°20' W 070°58'0 0.0
2018-Mar-10 14:30N 42°20' W 070°58'0 0.0
2018-Mar-10 14:00N 42°20' W 070°58'2 3.6
2018-Mar-10 13:30N 42°20' W 071°00'3 6.6
2018-Mar-10 13:00N 42°23' W 071°03'0 0.6
2018-Mar-10 12:31N 42°23' W 071°03'0 0.0
2018-Mar-10 12:00N 42°23' W 071°03'0 0.0
2018-Mar-10 11:30N 42°23' W 071°03'0 0.0
2018-Mar-10 11:00N 42°23' W 071°03'0 0.0
2018-Mar-10 10:30N 42°23' W 071°03'0 0.0
2018-Mar-10 10:00N 42°23' W 071°03'0 0.0
2018-Mar-10 09:30N 42°23' W 071°03'0 0.0
2018-Mar-10 09:00N 42°23' W 071°03'0 0.0
2018-Mar-10 08:30N 42°23' W 071°03'0 0.0
2018-Mar-10 08:00N 42°23' W 071°03'0 0.0
2018-Mar-10 07:30N 42°23' W 071°03'0 0.0
2018-Mar-10 07:00N 42°23' W 071°03'0 0.0
2018-Mar-10 06:30N 42°23' W 071°03'0 0.0
2018-Mar-10 06:00N 42°23' W 071°03'0 0.0
2018-Mar-10 05:30N 42°23' W 071°03'0 0.0
2018-Mar-10 05:00N 42°23' W 071°03'0 0.0
2018-Mar-10 04:30N 42°23' W 071°03'0 0.0
2018-Mar-10 04:00N 42°23' W 071°03'0 0.0
2018-Mar-10 03:30N 42°23' W 071°03'0 0.0
2018-Mar-10 03:00N 42°23' W 071°03'0 0.0
2018-Mar-10 02:30N 42°23' W 071°03'0 0.0
2018-Mar-10 02:00N 42°23' W 071°03'0 0.0
2018-Mar-10 01:30N 42°23' W 071°03'0 0.0
2018-Mar-10 01:00N 42°23' W 071°03'0 0.0
2018-Mar-10 00:30N 42°23' W 071°03'0 0.0
2018-Mar-10 00:00N 42°23' W 071°03'0 0.0
2018-Mar-09 23:31N 42°23' W 071°03'0 0.0
2018-Mar-09 23:00N 42°23' W 071°03'0 0.0
2018-Mar-09 22:30N 42°23' W 071°03'0 0.0
2018-Mar-09 22:00N 42°23' W 071°03'0 0.0
2018-Mar-09 21:30N 42°23' W 071°03'1 1.9
2018-Mar-09 21:00N 42°23' W 071°04'0 0.0
2018-Mar-09 20:30N 42°23' W 071°04'0 0.8
2018-Mar-09 20:00N 42°23' W 071°03'1 1.7
2018-Mar-09 19:30N 42°22' W 071°03'3 6.3
2018-Mar-09 19:01N 42°20' W 070°60'2 3.3
2018-Mar-09 18:30N 42°20' W 070°58'3 6.1
2018-Mar-09 18:00N 42°21' W 071°02'2 3.7
2018-Mar-09 17:31N 42°23' W 071°03'1 1.8
2018-Mar-09 17:00N 42°23' W 071°02'1 1.6
2018-Mar-09 16:30N 42°24' W 071°01'1 2.0
2018-Mar-09 16:00N 42°23' W 071°02'1 1.5
2018-Mar-09 15:30N 42°23' W 071°03'1 1.7
2018-Mar-09 15:01N 42°23' W 071°02'1 1.4
2018-Mar-09 14:30N 42°24' W 071°01'1 2.9
2018-Mar-09 14:00N 42°23' W 071°03'0 0.9
2018-Mar-09 13:30N 42°23' W 071°04'1 1.5
2018-Mar-09 13:01N 42°23' W 071°03'2 3.2
2018-Mar-09 12:30N 42°21' W 071°02'2 3.1
2018-Mar-09 12:00N 42°23' W 071°03'0 0.0
2018-Mar-09 11:30N 42°23' W 071°03'1 2.7
2018-Mar-09 11:00N 42°24' W 071°01'0 0.2
2018-Mar-09 10:30N 42°24' W 071°01'0 0.6
2018-Mar-09 10:00N 42°24' W 071°01'2 3.4
2018-Mar-09 09:31N 42°23' W 071°03'0 0.0
2018-Mar-09 09:00N 42°23' W 071°03'0 0.0
2018-Mar-09 08:30N 42°23' W 071°03'0 0.0
2018-Mar-09 08:00N 42°23' W 071°03'0 0.0
2018-Mar-09 07:30N 42°23' W 071°03'0 0.0
2018-Mar-09 07:00N 42°23' W 071°03'  

Dump ship's entire track history